sensor_id;sensor_type;location;lat;lon;timestamp;pressure;altitude;pressure_sealevel;temperature;humidity
9893;BME280;4985;49.092;8.542;2023-04-25T00:01:44;98730.28;;;18.42;52.32
9893;BME280;4985;49.092;8.542;2023-04-25T00:04:11;98736.41;;;18.42;52.33
9893;BME280;4985;49.092;8.542;2023-04-25T00:06:39;98734.78;;;18.41;52.32
9893;BME280;4985;49.092;8.542;2023-04-25T00:09:06;98729.47;;;18.41;52.33
9893;BME280;4985;49.092;8.542;2023-04-25T00:11:35;98732.38;;;18.40;52.31
9893;BME280;4985;49.092;8.542;2023-04-25T00:14:02;98738.50;;;18.40;52.33
9893;BME280;4985;49.092;8.542;2023-04-25T00:16:29;98732.00;;;18.36;52.34
9893;BME280;4985;49.092;8.542;2023-04-25T00:18:58;98739.78;;;18.38;52.36
9893;BME280;4985;49.092;8.542;2023-04-25T00:21:25;98735.25;;;18.38;52.36
9893;BME280;4985;49.092;8.542;2023-04-25T00:23:55;98738.97;;;18.37;52.37
9893;BME280;4985;49.092;8.542;2023-04-25T00:26:22;98744.28;;;18.37;52.37
9893;BME280;4985;49.092;8.542;2023-04-25T00:28:48;98732.00;;;18.36;52.37
9893;BME280;4985;49.092;8.542;2023-04-25T00:31:15;98742.66;;;18.36;52.37
9893;BME280;4985;49.092;8.542;2023-04-25T00:33:41;98737.34;;;18.36;52.37
9893;BME280;4985;49.092;8.542;2023-04-25T00:36:08;98733.06;;;18.35;52.37
9893;BME280;4985;49.092;8.542;2023-04-25T00:38:35;98730.41;;;18.35;52.37
9893;BME280;4985;49.092;8.542;2023-04-25T00:41:05;98732.22;;;18.34;52.37
9893;BME280;4985;49.092;8.542;2023-04-25T00:43:33;98731.41;;;18.34;52.37
9893;BME280;4985;49.092;8.542;2023-04-25T00:46:00;98732.44;;;18.33;52.37
9893;BME280;4985;49.092;8.542;2023-04-25T00:48:27;98734.06;;;18.34;52.37
9893;BME280;4985;49.092;8.542;2023-04-25T00:50:55;98723.41;;;18.34;52.36
9893;BME280;4985;49.092;8.542;2023-04-25T00:53:24;98724.44;;;18.33;52.37
9893;BME280;4985;49.092;8.542;2023-04-25T00:55:51;98726.31;;;18.32;52.36
9893;BME280;4985;49.092;8.542;2023-04-25T00:58:20;98719.13;;;18.33;52.38
9893;BME280;4985;49.092;8.542;2023-04-25T01:00:48;98706.84;;;18.32;52.38
9893;BME280;4985;49.092;8.542;2023-04-25T01:03:16;98708.69;;;18.31;52.38
9893;BME280;4985;49.092;8.542;2023-04-25T01:05:45;98706.84;;;18.32;52.40
9893;BME280;4985;49.092;8.542;2023-04-25T01:08:12;98701.97;;;18.29;52.40
9893;BME280;4985;49.092;8.542;2023-04-25T01:10:39;98703.59;;;18.30;52.41
9893;BME280;4985;49.092;8.542;2023-04-25T01:13:06;98701.97;;;18.29;52.42
9893;BME280;4985;49.092;8.542;2023-04-25T01:15:34;98701.97;;;18.29;52.44
9893;BME280;4985;49.092;8.542;2023-04-25T01:18:02;98703.03;;;18.28;52.43
9893;BME280;4985;49.092;8.542;2023-04-25T01:20:29;98702.19;;;18.27;52.45
9893;BME280;4985;49.092;8.542;2023-04-25T01:22:59;98702.44;;;18.26;52.46
9893;BME280;4985;49.092;8.542;2023-04-25T01:25:27;98698.59;;;18.22;52.47
9893;BME280;4985;49.092;8.542;2023-04-25T01:27:54;98704.53;;;18.24;52.50
9893;BME280;4985;49.092;8.542;2023-04-25T01:30:21;98705.53;;;18.23;52.53
9893;BME280;4985;49.092;8.542;2023-04-25T01:32:48;98692.44;;;18.21;52.53
9893;BME280;4985;49.092;8.542;2023-04-25T01:35:15;98701.25;;;18.22;52.54
9893;BME280;4985;49.092;8.542;2023-04-25T01:37:42;98687.94;;;18.22;52.54
9893;BME280;4985;49.092;8.542;2023-04-25T01:40:12;98687.34;;;18.20;52.54
9893;BME280;4985;49.092;8.542;2023-04-25T01:42:41;98687.94;;;18.22;52.54
9893;BME280;4985;49.092;8.542;2023-04-25T01:45:08;98691.63;;;18.21;52.54
9893;BME280;4985;49.092;8.542;2023-04-25T01:47:36;98683.63;;;18.21;52.51
9893;BME280;4985;49.092;8.542;2023-04-25T01:50:03;98681.78;;;18.21;52.52
9893;BME280;4985;49.092;8.542;2023-04-25T01:52:30;98684.69;;;18.20;52.53
9893;BME280;4985;49.092;8.542;2023-04-25T01:54:57;98690.00;;;18.20;52.52
9893;BME280;4985;49.092;8.542;2023-04-25T01:57:27;98687.34;;;18.20;52.53
9893;BME280;4985;49.092;8.542;2023-04-25T01:59:58;98688.38;;;18.19;52.51
9893;BME280;4985;49.092;8.542;2023-04-25T02:02:25;98691.06;;;18.19;52.53
9893;BME280;4985;49.092;8.542;2023-04-25T02:04:51;98699.03;;;18.19;52.55
9893;BME280;4985;49.092;8.542;2023-04-25T02:07:19;98688.63;;;18.17;52.55
9893;BME280;4985;49.092;8.542;2023-04-25T02:09:46;98691.28;;;18.17;52.53
9893;BME280;4985;49.092;8.542;2023-04-25T02:12:12;98688.63;;;18.17;52.55
9893;BME280;4985;49.092;8.542;2023-04-25T02:14:40;98691.28;;;18.17;52.54
9893;BME280;4985;49.092;8.542;2023-04-25T02:17:07;98696.59;;;18.17;52.55
9893;BME280;4985;49.092;8.542;2023-04-25T02:19:34;98688.03;;;18.15;52.56
9893;BME280;4985;49.092;8.542;2023-04-25T02:22:00;98685.59;;;18.14;52.59
9893;BME280;4985;49.092;8.542;2023-04-25T02:24:27;98678.66;;;18.13;52.61
9893;BME280;4985;49.092;8.542;2023-04-25T02:26:54;98674.94;;;18.14;52.60
9893;BME280;4985;49.092;8.542;2023-04-25T02:29:21;98680.28;;;18.14;52.60
9893;BME280;4985;49.092;8.542;2023-04-25T02:31:49;98683.97;;;18.13;52.61
9893;BME280;4985;49.092;8.542;2023-04-25T02:34:15;98685.00;;;18.12;52.61
9893;BME280;4985;49.092;8.542;2023-04-25T02:36:42;98678.03;;;18.11;52.61
9893;BME280;4985;49.092;8.542;2023-04-25T02:39:09;98682.56;;;18.10;52.64
9893;BME280;4985;49.092;8.542;2023-04-25T02:41:35;98678.28;;;18.09;52.65
9893;BME280;4985;49.092;8.542;2023-04-25T02:44:02;98681.97;;;18.08;52.66
9893;BME280;4985;49.092;8.542;2023-04-25T02:46:28;98678.28;;;18.09;52.67
9893;BME280;4985;49.092;8.542;2023-04-25T02:48:56;98683.03;;;18.07;52.69
9893;BME280;4985;49.092;8.542;2023-04-25T02:51:23;98679.53;;;18.07;52.69
9893;BME280;4985;49.092;8.542;2023-04-25T02:53:50;98675.50;;;18.04;52.69
9893;BME280;4985;49.092;8.542;2023-04-25T02:56:16;98665.88;;;18.03;52.72
9893;BME280;4985;49.092;8.542;2023-04-25T02:58:43;98661.59;;;18.02;52.75
9893;BME280;4985;49.092;8.542;2023-04-25T03:01:10;98660.78;;;18.01;52.76
9893;BME280;4985;49.092;8.542;2023-04-25T03:03:36;98654.66;;;18.01;52.77
9893;BME280;4985;49.092;8.542;2023-04-25T03:06:05;98658.31;;;18.00;52.79
9893;BME280;4985;49.092;8.542;2023-04-25T03:08:31;98657.50;;;17.99;52.79
9893;BME280;4985;49.092;8.542;2023-04-25T03:10:59;98658.31;;;18.00;52.79
9893;BME280;4985;49.092;8.542;2023-04-25T03:13:26;98659.13;;;18.00;52.79
9893;BME280;4985;49.092;8.542;2023-04-25T03:15:55;98652.19;;;17.99;52.78
9893;BME280;4985;49.092;8.542;2023-04-25T03:18:21;98652.19;;;17.99;52.77
9893;BME280;4985;49.092;8.542;2023-04-25T03:20:48;98658.31;;;18.00;52.78
9893;BME280;4985;49.092;8.542;2023-04-25T03:23:16;98663.66;;;18.00;52.77
9893;BME280;4985;49.092;8.542;2023-04-25T03:25:42;98659.13;;;18.00;52.76
9893;BME280;4985;49.092;8.542;2023-04-25T03:28:09;98655.47;;;18.01;52.73
9893;BME280;4985;49.092;8.542;2023-04-25T03:30:35;98659.97;;;18.01;52.72
9893;BME280;4985;49.092;8.542;2023-04-25T03:33:02;98653.81;;;18.00;52.71
9893;BME280;4985;49.092;8.542;2023-04-25T03:35:29;98650.13;;;18.01;52.68
9893;BME280;4985;49.092;8.542;2023-04-25T03:37:55;98660.78;;;18.01;52.68
9893;BME280;4985;49.092;8.542;2023-04-25T03:40:23;98665.28;;;18.01;52.68
9893;BME280;4985;49.092;8.542;2023-04-25T03:42:50;98657.31;;;18.01;52.68
9893;BME280;4985;49.092;8.542;2023-04-25T03:45:16;98665.28;;;18.01;52.66
9893;BME280;4985;49.092;8.542;2023-04-25T03:47:43;98661.78;;;18.00;52.66
9893;BME280;4985;49.092;8.542;2023-04-25T03:50:10;98656.47;;;18.00;52.65
9893;BME280;4985;49.092;8.542;2023-04-25T03:52:36;98658.13;;;18.01;52.62
9893;BME280;4985;49.092;8.542;2023-04-25T03:55:03;98667.72;;;18.02;52.60
9893;BME280;4985;49.092;8.542;2023-04-25T03:57:32;98666.09;;;18.01;52.60
9893;BME280;4985;49.092;8.542;2023-04-25T03:59:58;98668.78;;;18.01;52.59
9893;BME280;4985;49.092;8.542;2023-04-25T04:02:25;98670.62;;;18.01;52.59
9893;BME280;4985;49.092;8.542;2023-04-25T04:04:51;98674.09;;;18.01;52.57
9893;BME280;4985;49.092;8.542;2023-04-25T04:07:18;98671.44;;;18.01;52.56
9893;BME280;4985;49.092;8.542;2023-04-25T04:09:45;98666.09;;;18.01;52.56
9893;BME280;4985;49.092;8.542;2023-04-25T04:12:11;98670.62;;;18.01;52.53
9893;BME280;4985;49.092;8.542;2023-04-25T04:14:40;98678.38;;;18.02;52.53
9893;BME280;4985;49.092;8.542;2023-04-25T04:17:06;98667.34;;;17.99;52.52
9893;BME280;4985;49.092;8.542;2023-04-25T04:19:33;98668.78;;;18.01;52.52
9893;BME280;4985;49.092;8.542;2023-04-25T04:21:59;98669.78;;;18.00;52.52
9893;BME280;4985;49.092;8.542;2023-04-25T04:24:26;98673.28;;;18.01;52.51
9893;BME280;4985;49.092;8.542;2023-04-25T04:26:52;98682.28;;;18.00;52.51
9893;BME280;4985;49.092;8.542;2023-04-25T04:29:19;98681.47;;;17.99;52.52
9893;BME280;4985;49.092;8.542;2023-04-25T04:31:48;98683.31;;;17.99;52.51
9893;BME280;4985;49.092;8.542;2023-04-25T04:34:15;98676.16;;;17.99;52.52
9893;BME280;4985;49.092;8.542;2023-04-25T04:36:43;98681.47;;;17.99;52.51
9893;BME280;4985;49.092;8.542;2023-04-25T04:39:10;98684.13;;;17.99;52.51
9893;BME280;4985;49.092;8.542;2023-04-25T04:41:36;98680.91;;;17.97;52.53
9893;BME280;4985;49.092;8.542;2023-04-25T04:44:04;98680.91;;;17.97;52.54
9893;BME280;4985;49.092;8.542;2023-04-25T04:46:31;98680.09;;;17.97;52.53
9893;BME280;4985;49.092;8.542;2023-04-25T04:49:04;98681.13;;;17.96;52.54
9893;BME280;4985;49.092;8.542;2023-04-25T04:51:30;98689.91;;;17.96;52.55
9893;BME280;4985;49.092;8.542;2023-04-25T04:53:58;98681.34;;;17.94;52.57
9893;BME280;4985;49.092;8.542;2023-04-25T04:56:27;98693.03;;;17.93;52.59
9893;BME280;4985;49.092;8.542;2023-04-25T04:58:54;98692.00;;;17.94;52.60
9893;BME280;4985;49.092;8.542;2023-04-25T05:01:21;98694.09;;;17.92;52.60
9893;BME280;4985;49.092;8.542;2023-04-25T05:03:48;98693.28;;;17.92;52.61
9893;BME280;4985;49.092;8.542;2023-04-25T05:06:16;98698.59;;;17.92;52.62
9893;BME280;4985;49.092;8.542;2023-04-25T05:08:42;98692.47;;;17.91;52.62
9893;BME280;4985;49.092;8.542;2023-04-25T05:11:09;98688.97;;;17.91;52.61
9893;BME280;4985;49.092;8.542;2023-04-25T05:13:36;98690.84;;;17.90;52.63
9893;BME280;4985;49.092;8.542;2023-04-25T05:16:03;98694.50;;;17.89;52.64
9893;BME280;4985;49.092;8.542;2023-04-25T05:18:30;98694.50;;;17.89;52.65
9893;BME280;4985;49.092;8.542;2023-04-25T05:20:56;98696.34;;;17.89;52.65
9893;BME280;4985;49.092;8.542;2023-04-25T05:23:24;98704.34;;;17.89;52.65
9893;BME280;4985;49.092;8.542;2023-04-25T05:25:52;98704.34;;;17.89;52.65
9893;BME280;4985;49.092;8.542;2023-04-25T05:28:19;98698.22;;;17.88;52.66
9893;BME280;4985;49.092;8.542;2023-04-25T05:30:46;98703.34;;;17.90;52.64
9893;BME280;4985;49.092;8.542;2023-04-25T05:33:13;98705.16;;;17.89;52.62
9893;BME280;4985;49.092;8.542;2023-04-25T05:35:39;98698.22;;;17.88;52.59
9893;BME280;4985;49.092;8.542;2023-04-25T05:38:06;98699.84;;;17.89;52.57
9893;BME280;4985;49.092;8.542;2023-04-25T05:40:34;98700.69;;;17.90;52.55
9893;BME280;4985;49.092;8.542;2023-04-25T05:43:01;98694.50;;;17.89;52.55
9893;BME280;4985;49.092;8.542;2023-04-25T05:45:27;98701.91;;;17.87;52.53
9893;BME280;4985;49.092;8.542;2023-04-25T05:47:54;98696.16;;;17.90;52.53
9893;BME280;4985;49.092;8.542;2023-04-25T05:50:21;98696.16;;;17.90;52.53
9893;BME280;4985;49.092;8.542;2023-04-25T05:52:47;98699.84;;;17.89;52.56
9893;BME280;4985;49.092;8.542;2023-04-25T05:55:14;98698.22;;;17.88;52.56
9893;BME280;4985;49.092;8.542;2023-04-25T05:57:42;98699.25;;;17.87;52.58
9893;BME280;4985;49.092;8.542;2023-04-25T06:00:12;98702.72;;;17.88;52.61
9893;BME280;4985;49.092;8.542;2023-04-25T06:02:40;98702.72;;;17.88;52.62
9893;BME280;4985;49.092;8.542;2023-04-25T06:05:07;98701.09;;;17.87;52.62
9893;BME280;4985;49.092;8.542;2023-04-25T06:07:34;98705.63;;;17.86;52.62
9893;BME280;4985;49.092;8.542;2023-04-25T06:10:01;98701.09;;;17.87;52.62
9893;BME280;4985;49.092;8.542;2023-04-25T06:12:29;98702.94;;;17.86;52.63
9893;BME280;4985;49.092;8.542;2023-04-25T06:14:56;98702.94;;;17.86;52.64
9893;BME280;4985;49.092;8.542;2023-04-25T06:17:23;98705.63;;;17.86;52.64
9893;BME280;4985;49.092;8.542;2023-04-25T06:19:50;98715.47;;;17.86;52.65
9893;BME280;4985;49.092;8.542;2023-04-25T06:22:16;98711.97;;;17.85;52.67
9893;BME280;4985;49.092;8.542;2023-04-25T06:24:43;98714.63;;;17.85;52.67
9893;BME280;4985;49.092;8.542;2023-04-25T06:27:11;98715.91;;;17.83;52.69
9893;BME280;4985;49.092;8.542;2023-04-25T06:29:37;98711.41;;;17.83;52.72
9893;BME280;4985;49.092;8.542;2023-04-25T06:32:08;98720.41;;;17.82;52.75
9893;BME280;4985;49.092;8.542;2023-04-25T06:34:35;98709.19;;;17.80;52.77
9893;BME280;4985;49.092;8.542;2023-04-25T06:37:01;98718.78;;;17.81;52.79
9893;BME280;4985;49.092;8.542;2023-04-25T06:39:28;98722.50;;;17.80;52.82
9893;BME280;4985;49.092;8.542;2023-04-25T06:41:55;98728.63;;;17.81;52.81
9893;BME280;4985;49.092;8.542;2023-04-25T06:44:21;98723.31;;;17.81;52.81
9893;BME280;4985;49.092;8.542;2023-04-25T06:46:51;98728.63;;;17.81;52.82
9893;BME280;4985;49.092;8.542;2023-04-25T06:49:19;98716.59;;;17.78;52.79
9893;BME280;4985;49.092;8.542;2023-04-25T06:51:46;98721.22;;;17.83;52.78
9893;BME280;4985;49.092;8.542;2023-04-25T06:54:12;98733.50;;;17.84;52.76
9893;BME280;4985;49.092;8.542;2023-04-25T06:56:39;98730.03;;;17.83;52.72
9893;BME280;4985;49.092;8.542;2023-04-25T06:59:06;98733.72;;;17.82;52.72
9893;BME280;4985;49.092;8.542;2023-04-25T07:01:33;98736.41;;;17.82;52.72
9893;BME280;4985;49.092;8.542;2023-04-25T07:04:00;98732.69;;;17.83;52.70
9893;BME280;4985;49.092;8.542;2023-04-25T07:06:28;98731.06;;;17.82;52.70
9893;BME280;4985;49.092;8.542;2023-04-25T07:08:55;98738.03;;;17.83;52.70
9893;BME280;4985;49.092;8.542;2023-04-25T07:11:21;98741.72;;;17.82;52.71
9893;BME280;4985;49.092;8.542;2023-04-25T07:13:48;98741.72;;;17.82;52.71
9893;BME280;4985;49.092;8.542;2023-04-25T07:16:15;98751.56;;;17.82;52.71
9893;BME280;4985;49.092;8.542;2023-04-25T07:18:42;98741.72;;;17.82;52.70
9893;BME280;4985;49.092;8.542;2023-04-25T07:21:09;98738.03;;;17.83;52.68
9893;BME280;4985;49.092;8.542;2023-04-25T07:23:36;98739.88;;;17.83;52.66
9893;BME280;4985;49.092;8.542;2023-04-25T07:26:06;98744.16;;;17.84;52.66
9893;BME280;4985;49.092;8.542;2023-04-25T07:28:33;98739.66;;;17.84;52.65
9893;BME280;4985;49.092;8.542;2023-04-25T07:30:59;98739.66;;;17.84;52.62
9893;BME280;4985;49.092;8.542;2023-04-25T07:33:26;98744.97;;;17.84;52.60
9893;BME280;4985;49.092;8.542;2023-04-25T07:35:53;98748.44;;;17.85;52.58
9893;BME280;4985;49.092;8.542;2023-04-25T07:38:20;98744.16;;;17.84;52.58
9893;BME280;4985;49.092;8.542;2023-04-25T07:40:48;98748.66;;;17.83;52.60
9893;BME280;4985;49.092;8.542;2023-04-25T07:43:15;98744.37;;;17.82;52.62
9893;BME280;4985;49.092;8.542;2023-04-25T07:45:42;98748.09;;;17.81;52.64
9893;BME280;4985;49.092;8.542;2023-04-25T07:48:09;98746.47;;;17.80;52.66
9893;BME280;4985;49.092;8.542;2023-04-25T07:50:36;98764.28;;;17.80;52.67
9893;BME280;4985;49.092;8.542;2023-04-25T07:53:02;98767.75;;;17.80;52.68
9893;BME280;4985;49.092;8.542;2023-04-25T07:55:29;98758.16;;;17.79;52.69
9893;BME280;4985;49.092;8.542;2023-04-25T07:57:57;98770.66;;;17.79;52.68
9893;BME280;4985;49.092;8.542;2023-04-25T08:00:23;98762.66;;;17.79;52.67
9893;BME280;4985;49.092;8.542;2023-04-25T08:02:50;98769.84;;;17.78;52.69
9893;BME280;4985;49.092;8.542;2023-04-25T08:05:17;98773.50;;;17.77;52.70
9893;BME280;4985;49.092;8.542;2023-04-25T08:07:43;98782.31;;;17.78;52.70
9893;BME280;4985;49.092;8.542;2023-04-25T08:10:10;98784.16;;;17.77;52.70
9893;BME280;4985;49.092;8.542;2023-04-25T08:12:37;98780.47;;;17.78;52.69
9893;BME280;4985;49.092;8.542;2023-04-25T08:15:06;98785.81;;;17.78;52.67
9893;BME280;4985;49.092;8.542;2023-04-25T08:17:32;98786.81;;;17.77;52.71
9893;BME280;4985;49.092;8.542;2023-04-25T08:19:59;98795.84;;;17.76;52.72
9893;BME280;4985;49.092;8.542;2023-04-25T08:22:26;98797.91;;;17.74;52.75
9893;BME280;4985;49.092;8.542;2023-04-25T08:24:52;98804.87;;;17.75;52.77
9893;BME280;4985;49.092;8.542;2023-04-25T08:27:19;98803.81;;;17.76;52.73
9893;BME280;4985;49.092;8.542;2023-04-25T08:29:46;98805.44;;;17.77;52.72
9893;BME280;4985;49.092;8.542;2023-04-25T08:32:14;98806.50;;;17.76;52.71
9893;BME280;4985;49.092;8.542;2023-04-25T08:34:41;98813.44;;;17.77;52.71
9893;BME280;4985;49.092;8.542;2023-04-25T08:37:09;98816.09;;;17.77;52.71
9893;BME280;4985;49.092;8.542;2023-04-25T08:39:36;98811.22;;;17.74;52.70
9893;BME280;4985;49.092;8.542;2023-04-25T08:42:05;98822.47;;;17.76;52.72
9893;BME280;4985;49.092;8.542;2023-04-25T08:44:33;98828.81;;;17.75;52.74
9893;BME280;4985;49.092;8.542;2023-04-25T08:47:01;98828.22;;;17.73;52.75
9893;BME280;4985;49.092;8.542;2023-04-25T08:49:29;98829.84;;;17.74;52.76
9893;BME280;4985;49.092;8.542;2023-04-25T08:51:59;98831.94;;;17.72;52.79
9893;BME280;4985;49.092;8.542;2023-04-25T08:54:27;98839.09;;;17.71;52.80
9893;BME280;4985;49.092;8.542;2023-04-25T08:56:54;98843.63;;;17.71;52.81
9893;BME280;4985;49.092;8.542;2023-04-25T08:59:23;98839.53;;;17.68;52.83
9893;BME280;4985;49.092;8.542;2023-04-25T09:01:49;98854.25;;;17.71;52.83
9893;BME280;4985;49.092;8.542;2023-04-25T09:04:17;98857.97;;;17.70;52.83
9893;BME280;4985;49.092;8.542;2023-04-25T09:06:45;98865.94;;;17.70;52.83
9893;BME280;4985;49.092;8.542;2023-04-25T09:09:12;98883.75;;;17.69;52.84
9893;BME280;4985;49.092;8.542;2023-04-25T09:11:39;98893.38;;;17.70;52.82
9893;BME280;4985;49.092;8.542;2023-04-25T09:14:13;98906.25;;;17.73;52.78
9893;BME280;4985;49.092;8.542;2023-04-25T09:16:58;98895.37;;;17.75;52.74
9893;BME280;4985;49.092;8.542;2023-04-25T09:19:27;98903.13;;;17.77;52.68
9893;BME280;4985;49.092;8.542;2023-04-25T09:21:55;98909.28;;;17.77;52.64
9893;BME280;4985;49.092;8.542;2023-04-25T09:24:33;98902.09;;;17.78;52.60
9893;BME280;4985;49.092;8.542;2023-04-25T09:27:00;98914.41;;;17.79;52.58
9893;BME280;4985;49.092;8.542;2023-04-25T09:29:29;98911.75;;;17.79;52.56
9893;BME280;4985;49.092;8.542;2023-04-25T09:32:11;98912.56;;;17.79;52.54
9893;BME280;4985;49.092;8.542;2023-04-25T09:34:39;98920.53;;;17.79;52.53
9893;BME280;4985;49.092;8.542;2023-04-25T09:37:08;98933.03;;;17.79;52.53
9893;BME280;4985;49.092;8.542;2023-04-25T09:39:36;98932.00;;;17.80;52.51
9893;BME280;4985;49.092;8.542;2023-04-25T09:42:03;98934.91;;;17.78;52.52
9893;BME280;4985;49.092;8.542;2023-04-25T09:44:30;98946.34;;;17.79;52.54
9893;BME280;4985;49.092;8.542;2023-04-25T09:46:56;98944.91;;;17.76;52.56
9893;BME280;4985;49.092;8.542;2023-04-25T09:49:25;98944.91;;;17.76;52.57
9893;BME280;4985;49.092;8.542;2023-04-25T09:51:54;98944.31;;;17.74;52.58
9893;BME280;4985;49.092;8.542;2023-04-25T09:54:23;98949.66;;;17.74;52.60
9893;BME280;4985;49.092;8.542;2023-04-25T09:56:51;98947.00;;;17.74;52.62
9893;BME280;4985;49.092;8.542;2023-04-25T09:59:19;98956.81;;;17.73;52.63
9893;BME280;4985;49.092;8.542;2023-04-25T10:01:48;98959.72;;;17.72;52.64
9893;BME280;4985;49.092;8.542;2023-04-25T10:04:19;98955.19;;;17.72;52.64
9893;BME280;4985;49.092;8.542;2023-04-25T10:06:48;98954.38;;;17.72;52.64
9893;BME280;4985;49.092;8.542;2023-04-25T10:09:16;98962.38;;;17.72;52.64
9893;BME280;4985;49.092;8.542;2023-04-25T10:11:46;98963.19;;;17.72;52.63
9893;BME280;4985;49.092;8.542;2023-04-25T10:14:13;98965.03;;;17.72;52.64
9893;BME280;4985;49.092;8.542;2023-04-25T10:16:41;98964.22;;;17.71;52.65
9893;BME280;4985;49.092;8.542;2023-04-25T10:19:08;98971.37;;;17.71;52.65
9893;BME280;4985;49.092;8.542;2023-04-25T10:21:39;98975.09;;;17.70;52.66
9893;BME280;4985;49.092;8.542;2023-04-25T10:24:07;98976.12;;;17.69;52.69
9893;BME280;4985;49.092;8.542;2023-04-25T10:26:34;98983.06;;;17.70;52.74
9893;BME280;4985;49.092;8.542;2023-04-25T10:29:03;98979.78;;;17.68;52.75
9893;BME280;4985;49.092;8.542;2023-04-25T10:31:30;98982.44;;;17.68;52.77
9893;BME280;4985;49.092;8.542;2023-04-25T10:33:57;98981.81;;;17.66;52.80
9893;BME280;4985;49.092;8.542;2023-04-25T10:36:25;98984.47;;;17.66;52.82
9893;BME280;4985;49.092;8.542;2023-04-25T10:38:52;98979.16;;;17.66;52.82
9893;BME280;4985;49.092;8.542;2023-04-25T10:41:20;98985.53;;;17.65;52.83
9893;BME280;4985;49.092;8.542;2023-04-25T10:43:49;98979.37;;;17.64;52.84
9893;BME280;4985;49.092;8.542;2023-04-25T10:46:18;98989.22;;;17.64;52.86
9893;BME280;4985;49.092;8.542;2023-04-25T10:48:47;98985.75;;;17.63;52.86
9893;BME280;4985;49.092;8.542;2023-04-25T10:51:21;98993.72;;;17.63;52.88
9893;BME280;4985;49.092;8.542;2023-04-25T10:53:57;98994.53;;;17.64;52.88
9893;BME280;4985;49.092;8.542;2023-04-25T10:56:26;98998.22;;;17.63;52.88
9893;BME280;4985;49.092;8.542;2023-04-25T10:59:02;98993.94;;;17.62;52.91
9893;BME280;4985;49.092;8.542;2023-04-25T11:01:36;99004.59;;;17.62;52.91
9893;BME280;4985;49.092;8.542;2023-04-25T11:04:03;99006.44;;;17.61;52.91
9893;BME280;4985;49.092;8.542;2023-04-25T11:06:37;99001.94;;;17.62;52.93
9893;BME280;4985;49.092;8.542;2023-04-25T11:09:11;99005.41;;;17.62;52.94
9893;BME280;4985;49.092;8.542;2023-04-25T11:11:38;99005.63;;;17.61;52.97
9893;BME280;4985;49.092;8.542;2023-04-25T11:14:05;98997.47;;;17.56;53.00
9893;BME280;4985;49.092;8.542;2023-04-25T11:16:33;99010.13;;;17.60;53.01
9893;BME280;4985;49.092;8.542;2023-04-25T11:19:01;99004.81;;;17.60;53.03
9893;BME280;4985;49.092;8.542;2023-04-25T11:21:28;99009.31;;;17.60;53.04
9893;BME280;4985;49.092;8.542;2023-04-25T11:23:57;99010.94;;;17.61;53.04
9893;BME280;4985;49.092;8.542;2023-04-25T11:26:24;99010.94;;;17.61;53.04
9893;BME280;4985;49.092;8.542;2023-04-25T11:28:51;99013.59;;;17.61;53.04
9893;BME280;4985;49.092;8.542;2023-04-25T11:31:20;99010.94;;;17.61;53.05
9893;BME280;4985;49.092;8.542;2023-04-25T11:33:48;99016.28;;;17.61;53.04
9893;BME280;4985;49.092;8.542;2023-04-25T11:36:14;99013.59;;;17.61;53.05
9893;BME280;4985;49.092;8.542;2023-04-25T11:38:41;99018.94;;;17.61;53.04
9893;BME280;4985;49.092;8.542;2023-04-25T11:41:07;99017.09;;;17.61;53.05
9893;BME280;4985;49.092;8.542;2023-04-25T11:43:34;99008.28;;;17.61;53.05
9893;BME280;4985;49.092;8.542;2023-04-25T11:46:01;99025.06;;;17.61;53.06
9893;BME280;4985;49.092;8.542;2023-04-25T11:48:27;99018.94;;;17.61;53.08
9893;BME280;4985;49.092;8.542;2023-04-25T11:50:56;99017.91;;;17.62;53.09
9893;BME280;4985;49.092;8.542;2023-04-25T11:53:23;99024.84;;;17.63;53.09
9893;BME280;4985;49.092;8.542;2023-04-25T11:55:50;99019.53;;;17.63;53.09
9893;BME280;4985;49.092;8.542;2023-04-25T11:58:16;99027.50;;;17.63;53.11
9893;BME280;4985;49.092;8.542;2023-04-25T12:00:44;99029.12;;;17.64;53.11
9893;BME280;4985;49.092;8.542;2023-04-25T12:03:11;99026.47;;;17.64;53.14
9893;BME280;4985;49.092;8.542;2023-04-25T12:05:37;99027.06;;;17.66;53.12
9893;BME280;4985;49.092;8.542;2023-04-25T12:08:13;99036.72;;;17.67;53.11
9893;BME280;4985;49.092;8.542;2023-04-25T12:10:41;99047.38;;;17.67;53.13
9893;BME280;4985;49.092;8.542;2023-04-25T12:13:19;99043.03;;;17.66;53.15
9893;BME280;4985;49.092;8.542;2023-04-25T12:15:46;99037.94;;;17.64;53.16
9893;BME280;4985;49.092;8.542;2023-04-25T12:18:12;99052.06;;;17.65;53.16
9893;BME280;4985;49.092;8.542;2023-04-25T12:20:39;99050.22;;;17.65;53.18
9893;BME280;4985;49.092;8.542;2023-04-25T12:23:06;99051.03;;;17.66;53.20
9893;BME280;4985;49.092;8.542;2023-04-25T12:25:36;99054.72;;;17.65;53.21
9893;BME280;4985;49.092;8.542;2023-04-25T12:28:13;99059.84;;;17.66;53.24
9893;BME280;4985;49.092;8.542;2023-04-25T12:30:57;99060.69;;;17.67;53.24
9893;BME280;4985;49.092;8.542;2023-04-25T12:33:24;99051.03;;;17.66;53.27
9893;BME280;4985;49.092;8.542;2023-04-25T12:35:52;99064.34;;;17.66;53.28
9893;BME280;4985;49.092;8.542;2023-04-25T12:38:22;99062.50;;;17.66;53.29
9893;BME280;4985;49.092;8.542;2023-04-25T12:40:51;99060.69;;;17.67;53.32
9893;BME280;4985;49.092;8.542;2023-04-25T12:43:17;99057.38;;;17.65;53.31
9893;BME280;4985;49.092;8.542;2023-04-25T12:45:44;99060.47;;;17.68;53.31
9893;BME280;4985;49.092;8.542;2023-04-25T12:48:11;99060.28;;;17.70;53.29
9893;BME280;4985;49.092;8.542;2023-04-25T12:50:37;99053.91;;;17.71;53.29
9893;BME280;4985;49.092;8.542;2023-04-25T12:53:04;99049.63;;;17.70;53.31
9893;BME280;4985;49.092;8.542;2023-04-25T12:55:30;99053.09;;;17.70;53.32
9893;BME280;4985;49.092;8.542;2023-04-25T12:57:58;99054.72;;;17.71;53.33
9893;BME280;4985;49.092;8.542;2023-04-25T13:00:25;99048.59;;;17.71;53.32
9893;BME280;4985;49.092;8.542;2023-04-25T13:02:52;99057.16;;;17.73;53.32
9893;BME280;4985;49.092;8.542;2023-04-25T13:05:18;99056.56;;;17.71;53.30
9893;BME280;4985;49.092;8.542;2023-04-25T13:07:45;99062.50;;;17.73;53.30
9893;BME280;4985;49.092;8.542;2023-04-25T13:10:11;99061.47;;;17.74;53.30
9893;BME280;4985;49.092;8.542;2023-04-25T13:12:38;99071.06;;;17.75;53.29
9893;BME280;4985;49.092;8.542;2023-04-25T13:15:07;99065.75;;;17.75;53.29
9893;BME280;4985;49.092;8.542;2023-04-25T13:17:36;99059.41;;;17.76;53.27
9893;BME280;4985;49.092;8.542;2023-04-25T13:20:03;99066.56;;;17.75;53.26
9893;BME280;4985;49.092;8.542;2023-04-25T13:22:31;99070.84;;;17.77;53.25
9893;BME280;4985;49.092;8.542;2023-04-25T13:24:57;99069.81;;;17.78;53.24